Arklow Rogue — EIGD — position and weather

sailwx.info

Track history (hours):
 
Tides and Currents Weather Stations Pressure Air Temp Water Temp Dewpoint Dewpoint Depression Visibility Wind Speed Wind Dir Waves Ship Positions

Arklow Rogue

Last reported at 2016-Sep-23 06:33 UTC. Time now 2016-Sep-26 19:06 UTC.
Position N 53°33' W 003°52'.

Length 90 m; draft 3.4 m.

Type: Cargo ship. MMSI: 250000960.

Date/timePositionNaut miles runAvg speedWind from/ knotsBaromVisibWave heightAir tempDewpointWater temp
2016-Sep-23 06:33N 53°33' W 003°52'2512.5
2016-Sep-23 04:33N 53°32' W 003°10'1211.9
2016-Sep-23 03:33N 53°22' W 002°58'3 2.4
2016-Sep-23 02:30N 53°21' W 002°54'0 0.0
2016-Sep-23 01:33N 53°21' W 002°54'0 0.0
2016-Sep-23 00:30N 53°21' W 002°54'0 0.0
2016-Sep-22 23:33N 53°21' W 002°54'0 0.0
2016-Sep-22 20:27N 53°21' W 002°54'0 0.0
2016-Sep-22 12:18N 53°21' W 002°54'0 0.0
2016-Sep-22 04:27N 53°21' W 002°54'0 0.0
2016-Sep-22 03:33N 53°21' W 002°54'0 0.0
2016-Sep-22 00:30N 53°21' W 002°54'0 0.0
2016-Sep-21 23:33N 53°21' W 002°54'0 0.0
2016-Sep-21 22:33N 53°21' W 002°54'0 0.0
2016-Sep-21 19:33N 53°21' W 002°54'0 0.0
2016-Sep-21 16:30N 53°21' W 002°54'0 0.0
2016-Sep-21 09:33N 53°21' W 002°54'0 0.0
2016-Sep-21 08:24N 53°21' W 002°54'0 0.0
2016-Sep-21 03:24N 53°21' W 002°54'0 0.0
2016-Sep-21 02:30N 53°21' W 002°54'0 0.0
2016-Sep-20 17:33N 53°21' W 002°54'0 0.0
2016-Sep-20 14:33N 53°21' W 002°54'0 0.2
2016-Sep-20 13:33N 53°21' W 002°55'20 6.7
2016-Sep-20 10:33N 53°31' W 003°24'3 1.3
2016-Sep-20 08:33N 53°29' W 003°27'0 0.1
2016-Sep-20 07:33N 53°29' W 003°27'0 0.1
2016-Sep-20 06:33N 53°29' W 003°27'22 5.4
2016-Sep-20 02:33N 53°30' W 004°04'218 8.3
2016-Sep-19 00:26N 49°56' W 005°07'5210.7
2016-Sep-18 19:33N 50°08' W 003°48'39 9.7
2016-Sep-18 15:33N 50°17' W 002°49'7111.2
2016-Sep-18 09:11N 50°31' W 000°59'8110.0
2016-Sep-18 01:03N 50°53' E 001°05'4 8.9
2016-Sep-18 00:33N 50°56' E 001°10'17 8.7
2016-Sep-17 22:34N 51°07' E 001°31'1211.7
2016-Sep-17 21:33N 51°15' E 001°45'1413.6
2016-Sep-17 20:34N 51°27' E 001°55'1713.1
2016-Sep-17 19:16N 51°40' E 002°12'14110.1
2016-Sep-17 05:20N 53°29' E 004°39'7 9.5
2016-Sep-17 04:33N 53°32' E 004°50'4511.4
2016-Sep-17 00:33N 53°46' E 006°03'69 9.9
2016-Sep-16 17:33N 53°51' E 007°60'2612.7
2016-Sep-16 15:33N 53°34' E 008°32'4 1.4
2016-Sep-16 12:31N 53°30' E 008°31'0 0.0
2016-Sep-16 09:31N 53°30' E 008°31'0 0.0
2016-Sep-16 07:28N 53°30' E 008°31'0 0.0
2016-Sep-16 03:31N 53°30' E 008°31'0 0.0
2016-Sep-16 02:31N 53°30' E 008°31'0 0.0
2016-Sep-16 00:31N 53°30' E 008°31'0 0.0
2016-Sep-15 22:31N 53°30' E 008°31'0 0.0
2016-Sep-15 21:31N 53°30' E 008°31'0 0.0
2016-Sep-15 20:31N 53°30' E 008°31'0 0.0
2016-Sep-15 18:31N 53°30' E 008°31'26 4.4
2016-Sep-15 12:33N 53°50' E 008°03'6 5.9
2016-Sep-15 11:33N 53°56' E 008°00'26 3.7
2016-Sep-15 04:28N 53°51' E 008°43'0 0.0
2016-Sep-15 03:31N 53°51' E 008°43'0 0.0
2016-Sep-15 01:31N 53°51' E 008°43'0 0.0
2016-Sep-14 22:19N 53°51' E 008°43'0 0.0
2016-Sep-14 21:31N 53°51' E 008°43'0 0.0
2016-Sep-14 17:16N 53°51' E 008°43'0 0.0
2016-Sep-14 13:25N 53°51' E 008°43'0 0.0
2016-Sep-14 12:31N 53°51' E 008°43'0 0.0
2016-Sep-14 10:25N 53°51' E 008°43'0 0.0
2016-Sep-14 08:28N 53°51' E 008°43'0 0.0
2016-Sep-14 07:17N 53°51' E 008°43'1 1.0
2016-Sep-14 06:33N 53°52' E 008°43'11 3.5
2016-Sep-14 03:33N 53°58' E 008°29'42 8.3
2016-Sep-13 22:33N 54°21' E 007°29'2210.8
2016-Sep-13 20:33N 54°40' E 007°11'2311.4
2016-Sep-13 18:33N 55°00' E 006°52'1111.4
2016-Sep-13 17:33N 55°10' E 006°43'1211.4
2016-Sep-13 16:33N 55°21' E 006°38'  
Track history (hours):
 
Tides and Currents Weather Stations Pressure Air Temp Water Temp Dewpoint Dewpoint Depression Visibility Wind Speed Wind Dir Waves Ship Positions

Arklow Rogue

Last reported at 2016-Sep-23 06:33 UTC. Time now 2016-Sep-26 19:06 UTC.
Position N 53°33' W 003°52'.

Length 90 m; draft 3.4 m.

Type: Cargo ship. MMSI: 250000960.

Date/timePositionNaut miles runAvg speedWind from/ knotsBaromVisibWave heightAir tempDewpointWater temp
2016-Sep-23 06:33N 53°33' W 003°52'2512.5
2016-Sep-23 04:33N 53°32' W 003°10'1211.9
2016-Sep-23 03:33N 53°22' W 002°58'3 2.4
2016-Sep-23 02:30N 53°21' W 002°54'0 0.0
2016-Sep-23 01:33N 53°21' W 002°54'0 0.0
2016-Sep-23 00:30N 53°21' W 002°54'0 0.0
2016-Sep-22 23:33N 53°21' W 002°54'0 0.0
2016-Sep-22 20:27N 53°21' W 002°54'0 0.0
2016-Sep-22 12:18N 53°21' W 002°54'0 0.0
2016-Sep-22 04:27N 53°21' W 002°54'0 0.0
2016-Sep-22 03:33N 53°21' W 002°54'0 0.0
2016-Sep-22 00:30N 53°21' W 002°54'0 0.0
2016-Sep-21 23:33N 53°21' W 002°54'0 0.0
2016-Sep-21 22:33N 53°21' W 002°54'0 0.0
2016-Sep-21 19:33N 53°21' W 002°54'0 0.0
2016-Sep-21 16:30N 53°21' W 002°54'0 0.0
2016-Sep-21 09:33N 53°21' W 002°54'0 0.0
2016-Sep-21 08:24N 53°21' W 002°54'0 0.0
2016-Sep-21 03:24N 53°21' W 002°54'0 0.0
2016-Sep-21 02:30N 53°21' W 002°54'0 0.0
2016-Sep-20 17:33N 53°21' W 002°54'0 0.0
2016-Sep-20 14:33N 53°21' W 002°54'0 0.2
2016-Sep-20 13:33N 53°21' W 002°55'20 6.7
2016-Sep-20 10:33N 53°31' W 003°24'3 1.3
2016-Sep-20 08:33N 53°29' W 003°27'0 0.1
2016-Sep-20 07:33N 53°29' W 003°27'0 0.1
2016-Sep-20 06:33N 53°29' W 003°27'22 5.4
2016-Sep-20 02:33N 53°30' W 004°04'218 8.3
2016-Sep-19 00:26N 49°56' W 005°07'5210.7
2016-Sep-18 19:33N 50°08' W 003°48'39 9.7
2016-Sep-18 15:33N 50°17' W 002°49'7111.2
2016-Sep-18 09:11N 50°31' W 000°59'8110.0
2016-Sep-18 01:03N 50°53' E 001°05'4 8.9
2016-Sep-18 00:33N 50°56' E 001°10'17 8.7
2016-Sep-17 22:34N 51°07' E 001°31'1211.7
2016-Sep-17 21:33N 51°15' E 001°45'1413.6
2016-Sep-17 20:34N 51°27' E 001°55'1713.1
2016-Sep-17 19:16N 51°40' E 002°12'14110.1
2016-Sep-17 05:20N 53°29' E 004°39'7 9.5
2016-Sep-17 04:33N 53°32' E 004°50'4511.4
2016-Sep-17 00:33N 53°46' E 006°03'69 9.9
2016-Sep-16 17:33N 53°51' E 007°60'2612.7
2016-Sep-16 15:33N 53°34' E 008°32'4 1.4
2016-Sep-16 12:31N 53°30' E 008°31'0 0.0
2016-Sep-16 09:31N 53°30' E 008°31'0 0.0
2016-Sep-16 07:28N 53°30' E 008°31'0 0.0
2016-Sep-16 03:31N 53°30' E 008°31'0 0.0
2016-Sep-16 02:31N 53°30' E 008°31'0 0.0
2016-Sep-16 00:31N 53°30' E 008°31'0 0.0
2016-Sep-15 22:31N 53°30' E 008°31'0 0.0
2016-Sep-15 21:31N 53°30' E 008°31'0 0.0
2016-Sep-15 20:31N 53°30' E 008°31'0 0.0
2016-Sep-15 18:31N 53°30' E 008°31'26 4.4
2016-Sep-15 12:33N 53°50' E 008°03'6 5.9
2016-Sep-15 11:33N 53°56' E 008°00'26 3.7
2016-Sep-15 04:28N 53°51' E 008°43'0 0.0
2016-Sep-15 03:31N 53°51' E 008°43'0 0.0
2016-Sep-15 01:31N 53°51' E 008°43'0 0.0
2016-Sep-14 22:19N 53°51' E 008°43'0 0.0
2016-Sep-14 21:31N 53°51' E 008°43'0 0.0
2016-Sep-14 17:16N 53°51' E 008°43'0 0.0
2016-Sep-14 13:25N 53°51' E 008°43'0 0.0
2016-Sep-14 12:31N 53°51' E 008°43'0 0.0
2016-Sep-14 10:25N 53°51' E 008°43'0 0.0
2016-Sep-14 08:28N 53°51' E 008°43'0 0.0
2016-Sep-14 07:17N 53°51' E 008°43'1 1.0
2016-Sep-14 06:33N 53°52' E 008°43'11 3.5
2016-Sep-14 03:33N 53°58' E 008°29'42 8.3
2016-Sep-13 22:33N 54°21' E 007°29'2210.8
2016-Sep-13 20:33N 54°40' E 007°11'2311.4
2016-Sep-13 18:33N 55°00' E 006°52'1111.4
2016-Sep-13 17:33N 55°10' E 006°43'1211.4
2016-Sep-13 16:33N 55°21' E 006°38'  

Dump ship's entire track history